Time;durP1;ratioP1;P1;durP2;ratioP2;P2;SDS_P1;SDS_P2;PMS_P1;PMS_P2;Temp;Humidity;BMP_temperature;BMP_pressure;BME280_temperature;BME280_humidity;BME280_pressure;Samples;Min_cycle;Max_cycle;Signal;HPM_P1;HPM_P2
2022/08/16 00:00:21;;;;;;;;;;;;;;;21.87;28.94;97256.44;4701907;30;1987;-76
2022/08/16 00:02:46;;;;;;;;;;;;;;;22.01;29.17;97255.84;4728979;30;996;-77
2022/08/16 00:05:12;;;;;;;;;;;;;;;22.08;29.50;97256.34;4737606;30;1021;-76
2022/08/16 00:07:38;;;;;;;;;;;;;;;22.36;29.33;97260.09;4737523;30;1014;-77
2022/08/16 00:10:05;;;;;;;;;;;;;;;22.31;29.28;97260.72;4752082;30;1016;-76
2022/08/16 00:12:31;;;;;;;;;;;;;;;22.06;29.25;97258.06;4785188;30;947;-76
2022/08/16 00:14:57;;;;;;;;;;;;;;;21.65;29.93;97267.78;4790553;29;939;-76
2022/08/16 00:17:23;;;;;;;;;;;;;;;21.76;29.55;97260.47;4737289;30;989;-76
2022/08/16 00:19:48;;;;;;;;;;;;;;;21.72;29.70;97262.66;4781397;30;1904;-76
2022/08/16 00:22:14;;;;;;;;;;;;;;;21.79;29.37;97267.22;4791311;29;1236;-76
2022/08/16 00:24:39;;;;;;;;;;;;;;;21.74;29.33;97271.44;4808734;29;1156;-76
2022/08/16 00:27:05;;;;;;;;;;;;;;;21.73;29.40;97272.72;4854145;29;1005;-76
2022/08/16 00:29:30;;;;;;;;;;;;;;;22.03;28.96;97284.50;4854094;29;1328;-76
2022/08/16 00:31:56;;;;;;;;;;;;;;;21.99;28.72;97281.81;4881665;29;1183;-76
2022/08/16 00:34:23;;;;;;;;;;;;;;;21.87;29.02;97284.75;4844661;29;1262;-77
2022/08/16 00:36:48;;;;;;;;;;;;;;;21.96;28.66;97282.72;4844581;29;1013;-76
2022/08/16 00:39:14;;;;;;;;;;;;;;;21.80;28.76;97280.91;4844567;29;999;-76
2022/08/16 00:41:40;;;;;;;;;;;;;;;21.87;28.40;97284.75;4844223;29;1980;-76
2022/08/16 00:44:09;;;;;;;;;;;;;;;21.79;28.81;97285.00;4826197;29;1245;-75
2022/08/16 00:46:50;;;;;;;;;;;;;;;22.27;28.92;97284.78;4826563;29;952;-76
2022/08/16 00:49:15;;;;;;;;;;;;;;;22.16;29.16;97285.22;4807880;29;987;-76
2022/08/16 00:51:41;;;;;;;;;;;;;;;22.24;29.04;97275.19;4789938;29;1100;-77
2022/08/16 00:54:06;;;;;;;;;;;;;;;22.16;29.23;97290.88;4774714;29;1020;-76
2022/08/16 00:56:33;;;;;;;;;;;;;;;21.99;29.19;97286.69;4789825;29;1265;-76
2022/08/16 00:58:58;;;;;;;;;;;;;;;21.88;29.52;97289.94;4754145;30;929;-77
2022/08/16 01:01:24;;;;;;;;;;;;;;;21.92;29.14;97281.31;4784935;29;1920;-77
2022/08/16 01:03:50;;;;;;;;;;;;;;;22.07;28.75;97294.44;4789460;30;1829;-76
2022/08/16 01:06:17;;;;;;;;;;;;;;;22.08;28.61;97289.56;4789352;30;969;-76
2022/08/16 01:08:43;;;;;;;;;;;;;;;21.86;29.13;97289.59;4774669;30;1062;-76
2022/08/16 01:11:08;;;;;;;;;;;;;;;21.77;29.00;97284.69;4797320;29;1002;-76
2022/08/16 01:13:35;;;;;;;;;;;;;;;22.08;28.74;97275.41;4809948;29;1001;-76
2022/08/16 01:16:05;;;;;;;;;;;;;;;21.85;29.05;97279.53;4822728;29;1302;-76
2022/08/16 01:18:31;;;;;;;;;;;;;;;21.85;28.81;97274.66;4822444;29;1021;-77
2022/08/16 01:21:15;;;;;;;;;;;;;;;21.75;28.82;97273.03;4839578;29;1996;-76
2022/08/16 01:23:59;;;;;;;;;;;;;;;21.95;28.53;97280.38;4855370;29;1238;-75
2022/08/16 01:26:25;;;;;;;;;;;;;;;22.39;28.89;97286.72;4843801;29;1304;-76
2022/08/16 01:28:50;;;;;;;;;;;;;;;22.49;28.69;97284.72;4843851;29;979;-76
2022/08/16 01:31:16;;;;;;;;;;;;;;;22.16;28.87;97279.53;4825549;29;1069;-76
2022/08/16 01:33:41;;;;;;;;;;;;;;;22.17;28.77;97281.13;4825643;29;1405;-76
2022/08/16 01:36:07;;;;;;;;;;;;;;;22.04;29.19;97283.25;4839807;29;948;-76
2022/08/16 01:38:35;;;;;;;;;;;;;;;22.07;28.74;97288.78;4880734;29;1225;-76
2022/08/16 01:41:02;;;;;;;;;;;;;;;22.03;28.70;97287.34;4861955;29;1923;-76
2022/08/16 01:43:29;;;;;;;;;;;;;;;22.03;28.71;97282.47;4862046;29;1306;-77
2022/08/16 01:45:56;;;;;;;;;;;;;;;22.03;28.71;97281.69;4861952;29;1111;-76
2022/08/16 01:48:25;;;;;;;;;;;;;;;21.65;29.29;97279.88;4843434;29;1045;-76
2022/08/16 01:50:51;;;;;;;;;;;;;;;21.56;29.53;97277.81;4806700;29;966;-76
2022/08/16 01:53:16;;;;;;;;;;;;;;;21.72;28.92;97279.63;4788571;29;1359;-76
2022/08/16 01:56:02;;;;;;;;;;;;;;;21.83;28.77;97280.00;4806611;29;1169;-76
2022/08/16 01:58:30;;;;;;;;;;;;;;;21.85;28.62;97271.81;4789721;29;1190;-76
2022/08/16 02:00:56;;;;;;;;;;;;;;;21.97;28.41;97266.53;4789242;29;1975;-76
2022/08/16 02:03:23;;;;;;;;;;;;;;;21.64;29.14;97267.00;4789473;29;1046;-76
2022/08/16 02:05:48;;;;;;;;;;;;;;;21.54;28.96;97262.53;4806597;29;1029;-77
2022/08/16 02:08:14;;;;;;;;;;;;;;;21.82;28.48;97264.28;4803647;29;1016;-76
2022/08/16 02:10:39;;;;;;;;;;;;;;;21.64;28.76;97266.19;4806834;29;1155;-76
2022/08/16 02:13:05;;;;;;;;;;;;;;;21.65;28.84;97251.56;4788728;29;1140;-76
2022/08/16 02:15:32;;;;;;;;;;;;;;;21.76;28.59;97268.16;4787845;29;1346;-77
2022/08/16 02:17:58;;;;;;;;;;;;;;;21.73;29.35;97260.59;4765323;30;1014;-77
2022/08/16 02:20:24;;;;;;;;;;;;;;;22.40;28.65;97259.16;4769139;30;1919;-76
2022/08/16 02:22:50;;;;;;;;;;;;;;;22.47;28.60;97264.53;4775103;30;1242;-77
2022/08/16 02:25:16;;;;;;;;;;;;;;;22.14;28.75;97264.28;4788432;30;1256;-75
2022/08/16 02:27:42;;;;;;;;;;;;;;;22.02;29.26;97257.41;4755848;30;1326;-76
2022/08/16 02:30:11;;;;;;;;;;;;;;;21.85;28.99;97265.38;4765062;30;1259;-76
2022/08/16 02:32:36;;;;;;;;;;;;;;;21.66;29.10;97260.84;4752947;30;1251;-76
2022/08/16 02:35:02;;;;;;;;;;;;;;;21.97;28.72;97263.72;4753190;30;1176;-76
2022/08/16 02:37:28;;;;;;;;;;;;;;;21.89;28.95;97270.91;4770175;30;1133;-76
2022/08/16 02:39:54;;;;;;;;;;;;;;;21.88;28.88;97269.34;4750518;30;1892;-76
2022/08/16 02:42:19;;;;;;;;;;;;;;;21.89;28.81;97270.91;4739584;30;1294;-76
2022/08/16 02:44:45;;;;;;;;;;;;;;;21.90;28.89;97272.47;4721992;30;1132;-76
2022/08/16 02:47:10;;;;;;;;;;;;;;;21.71;29.00;97272.41;4732322;30;1107;-76
2022/08/16 02:49:36;;;;;;;;;;;;;;;21.55;29.31;97270.56;4717524;30;1252;-77
2022/08/16 02:52:01;;;;;;;;;;;;;;;21.62;29.27;97269.50;4717459;30;992;-76
2022/08/16 02:54:27;;;;;;;;;;;;;;;21.58;28.96;97274.50;4730637;30;968;-76
2022/08/16 02:56:53;;;;;;;;;;;;;;;21.80;28.78;97275.25;4749825;30;1157;-76
2022/08/16 02:59:19;;;;;;;;;;;;;;;22.33;28.50;97272.38;4779517;29;1272;-76
2022/08/16 03:01:44;;;;;;;;;;;;;;;22.29;28.59;97276.63;4789690;29;1986;-76
2022/08/16 03:04:24;;;;;;;;;;;;;;;22.05;28.74;97267.81;4806047;29;1600;-76
2022/08/16 03:06:50;;;;;;;;;;;;;;;22.03;28.99;97264.69;4788398;29;1148;-76
2022/08/16 03:09:36;;;;;;;;;;;;;;;21.98;28.52;97263.25;4822636;29;984;-76
2022/08/16 03:12:02;;;;;;;;;;;;;;;21.94;28.78;97270.28;4842087;29;1143;-76
2022/08/16 03:14:28;;;;;;;;;;;;;;;21.78;29.01;97263.63;4843138;29;1198;-76
2022/08/16 03:16:56;;;;;;;;;;;;;;;21.83;29.05;97268.69;4839839;29;1531;-76
2022/08/16 03:19:22;;;;;;;;;;;;;;;21.71;29.10;97269.56;4842594;29;1155;-76
2022/08/16 03:21:48;;;;;;;;;;;;;;;21.93;28.78;97266.69;4845768;29;1919;-76
2022/08/16 03:24:14;;;;;;;;;;;;;;;21.76;28.82;97263.31;4877063;29;1371;-76
2022/08/16 03:26:39;;;;;;;;;;;;;;;21.81;28.71;97268.38;4879263;29;1196;-75
2022/08/16 03:29:05;;;;;;;;;;;;;;;21.94;28.40;97273.91;4881378;29;1120;-76
2022/08/16 03:31:30;;;;;;;;;;;;;;;21.88;28.38;97272.16;4885928;29;1169;-76
2022/08/16 03:33:57;;;;;;;;;;;;;;;21.79;28.79;97270.06;4830092;29;1128;-76
2022/08/16 03:36:22;;;;;;;;;;;;;;;21.84;28.55;97269.47;4827139;29;1670;-75
2022/08/16 03:38:53;;;;;;;;;;;;;;;21.60;28.84;97266.34;4777504;29;1167;-75
2022/08/16 03:41:19;;;;;;;;;;;;;;;22.17;28.56;97269.78;4775747;30;1908;-75
2022/08/16 03:43:44;;;;;;;;;;;;;;;22.35;28.45;97266.25;4776414;30;1271;-76
2022/08/16 03:46:14;;;;;;;;;;;;;;;22.24;28.28;97269.50;4793934;29;1247;-76
2022/08/16 03:48:40;;;;;;;;;;;;;;;22.26;28.55;97271.88;4808982;29;1155;-75
2022/08/16 03:51:12;;;;;;;;;;;;;;;21.70;29.29;97270.78;4845135;29;1453;-76
2022/08/16 03:53:43;;;;;;;;;;;;;;;21.83;28.85;97271.50;4845466;29;1080;-76
2022/08/16 03:56:09;;;;;;;;;;;;;;;21.90;28.75;97272.47;4793229;29;1310;-77
2022/08/16 03:58:35;;;;;;;;;;;;;;;21.90;28.76;97280.97;4793149;29;1002;-76
2022/08/16 04:01:01;;;;;;;;;;;;;;;21.85;28.75;97279.53;4758838;30;1986;-75
2022/08/16 04:03:27;;;;;;;;;;;;;;;22.05;28.58;97279.94;4804431;29;886;-76
2022/08/16 04:05:52;;;;;;;;;;;;;;;22.08;28.34;97289.56;4840633;29;1116;-76
2022/08/16 04:08:20;;;;;;;;;;;;;;;22.22;28.27;97280.50;4830152;29;1473;-76
2022/08/16 04:10:47;;;;;;;;;;;;;;;21.96;28.52;97287.59;4825837;29;1430;-76
2022/08/16 04:13:13;;;;;;;;;;;;;;;21.53;29.40;97283.59;4808119;29;1106;-76
2022/08/16 04:15:39;;;;;;;;;;;;;;;21.73;28.90;97286.09;4808277;29;1300;-76
2022/08/16 04:18:15;;;;;;;;;;;;;;;21.74;28.75;97284.81;4808002;29;1278;-77
2022/08/16 04:20:40;;;;;;;;;;;;;;;21.72;28.70;97285.28;4744452;29;1912;-76
2022/08/16 04:23:08;;;;;;;;;;;;;;;22.33;28.67;97283.72;4756071;30;1248;-76
2022/08/16 04:25:35;;;;;;;;;;;;;;;22.57;28.21;97288.81;4764579;30;1280;-76
2022/08/16 04:28:01;;;;;;;;;;;;;;;22.27;28.61;97291.22;4790362;29;1183;-76
2022/08/16 04:30:27;;;;;;;;;;;;;;;22.16;28.87;97293.72;4807971;29;1135;-77
2022/08/16 04:32:53;;;;;;;;;;;;;;;21.85;29.02;97300.13;4838697;29;1285;-76
2022/08/16 04:35:19;;;;;;;;;;;;;;;21.97;28.79;97301.31;4862433;29;924;-76
2022/08/16 04:37:45;;;;;;;;;;;;;;;22.04;28.75;97295.38;4844534;29;1255;-76
2022/08/16 04:40:19;;;;;;;;;;;;;;;21.99;28.72;97295.97;4832662;29;1903;-76
2022/08/16 04:42:44;;;;;;;;;;;;;;;21.98;28.74;97290.78;4828286;29;1533;-76
2022/08/16 04:45:12;;;;;;;;;;;;;;;21.73;29.27;97295.38;4792653;29;1259;-75
2022/08/16 04:47:38;;;;;;;;;;;;;;;21.85;28.90;97293.69;4807958;29;1371;-76
2022/08/16 04:50:10;;;;;;;;;;;;;;;21.97;28.67;97289.22;4839127;29;1264;-76
2022/08/16 04:52:36;;;;;;;;;;;;;;;21.90;28.88;97283.81;4844202;29;1003;-77
2022/08/16 04:55:04;;;;;;;;;;;;;;;21.76;29.01;97285.13;4825842;29;1142;-76
2022/08/16 04:57:30;;;;;;;;;;;;;;;21.82;28.91;97289.75;4789360;30;1280;-76
2022/08/16 04:59:56;;;;;;;;;;;;;;;21.91;28.70;97285.38;4789435;30;1912;-76
2022/08/16 05:02:21;;;;;;;;;;;;;;;21.69;29.24;97291.09;4758548;30;1141;-76
2022/08/16 05:04:47;;;;;;;;;;;;;;;21.89;28.93;97293.56;4754234;30;1022;-76
2022/08/16 05:07:12;;;;;;;;;;;;;;;21.74;29.23;97291.28;4769407;30;997;-76
2022/08/16 05:09:55;;;;;;;;;;;;;;;21.89;28.89;97296.41;4771803;30;1313;-75
2022/08/16 05:12:21;;;;;;;;;;;;;;;21.79;29.26;97296.34;4771482;30;1355;-76
2022/08/16 05:14:46;;;;;;;;;;;;;;;21.85;29.11;97297.31;4800004;29;1133;-76
2022/08/16 05:17:19;;;;;;;;;;;;;;;21.60;29.40;97294.63;4825769;29;1165;-76
2022/08/16 05:19:45;;;;;;;;;;;;;;;21.70;29.16;97284.16;4825605;29;1981;-76
2022/08/16 05:22:14;;;;;;;;;;;;;;;21.89;28.87;97293.56;4819283;29;1271;-76
2022/08/16 05:24:41;;;;;;;;;;;;;;;21.78;29.21;97293.97;4807258;29;1404;-76
2022/08/16 05:27:06;;;;;;;;;;;;;;;21.37;29.77;97292.28;4858875;29;984;-76
2022/08/16 05:29:32;;;;;;;;;;;;;;;22.00;29.34;97296.75;4825232;29;1291;-76
2022/08/16 05:32:05;;;;;;;;;;;;;;;22.10;29.50;97292.72;4789287;29;1010;-76
2022/08/16 05:34:30;;;;;;;;;;;;;;;22.09;29.31;97293.97;4806340;29;1008;-76
2022/08/16 05:36:56;;;;;;;;;;;;;;;22.16;29.23;97302.22;4807323;29;1239;-76
2022/08/16 05:39:26;;;;;;;;;;;;;;;22.16;29.20;97290.88;4791957;29;1317;-76
2022/08/16 05:41:52;;;;;;;;;;;;;;;22.00;29.61;97299.59;4806977;29;1984;-76
2022/08/16 05:44:19;;;;;;;;;;;;;;;22.07;29.30;97304.97;4785871;29;1106;-76
2022/08/16 05:46:44;;;;;;;;;;;;;;;22.15;29.07;97311.97;4753058;30;985;-76
2022/08/16 05:49:15;;;;;;;;;;;;;;;22.03;29.16;97310.00;4768032;30;1168;-76
2022/08/16 05:51:42;;;;;;;;;;;;;;;21.83;29.46;97302.66;4743042;30;1263;-76
2022/08/16 05:54:09;;;;;;;;;;;;;;;21.98;29.47;97290.78;4753226;30;1074;-76
2022/08/16 05:56:35;;;;;;;;;;;;;;;21.76;29.60;97296.47;4753060;30;917;-76
2022/08/16 05:59:01;;;;;;;;;;;;;;;21.84;29.76;97307.06;4752866;30;1332;-76
2022/08/16 06:01:26;;;;;;;;;;;;;;;21.83;29.54;97308.31;4687707;30;1916;-75
2022/08/16 06:03:52;;;;;;;;;;;;;;;21.91;29.63;97308.81;4706494;30;1223;-76
2022/08/16 06:06:24;;;;;;;;;;;;;;;21.88;29.62;97308.97;4752885;30;1101;-76
2022/08/16 06:08:49;;;;;;;;;;;;;;;22.10;29.20;97309.72;4783658;30;945;-77
2022/08/16 06:11:15;;;;;;;;;;;;;;;21.95;29.53;97305.84;4788071;29;1192;-77
2022/08/16 06:13:47;;;;;;;;;;;;;;;21.97;29.60;97306.19;4788118;29;1199;-77
2022/08/16 06:16:16;;;;;;;;;;;;;;;21.89;29.63;97316.22;4741621;30;1266;-77
2022/08/16 06:18:43;;;;;;;;;;;;;;;21.53;30.21;97309.84;4757707;30;1386;-77
2022/08/16 06:21:11;;;;;;;;;;;;;;;22.01;29.54;97318.16;4785572;29;1989;-77
2022/08/16 06:23:37;;;;;;;;;;;;;;;21.79;29.51;97313.31;4817826;29;1220;-78
2022/08/16 06:26:06;;;;;;;;;;;;;;;22.08;29.23;97318.69;4771422;29;1072;-78
2022/08/16 06:28:34;;;;;;;;;;;;;;;21.78;29.80;97311.75;4782455;29;1223;-78
2022/08/16 06:31:00;;;;;;;;;;;;;;;21.84;29.46;97312.72;4788181;29;1284;-78
2022/08/16 06:33:26;;;;;;;;;;;;;;;21.64;30.11;97315.13;4804578;29;948;-78
2022/08/16 06:35:52;;;;;;;;;;;;;;;21.73;29.85;97326.50;4796057;29;1230;-78
2022/08/16 06:38:20;;;;;;;;;;;;;;;21.56;29.93;97323.09;4821307;29;1243;-78
2022/08/16 06:40:45;;;;;;;;;;;;;;;22.03;29.31;97329.84;4805890;29;1900;-77
2022/08/16 06:43:11;;;;;;;;;;;;;;;21.89;29.43;97333.22;4822060;29;1226;-77
2022/08/16 06:45:45;;;;;;;;;;;;;;;21.82;29.44;97322.97;4806109;29;1366;-78
2022/08/16 06:48:15;;;;;;;;;;;;;;;21.78;29.74;97328.75;4806324;29;1285;-77
2022/08/16 06:50:41;;;;;;;;;;;;;;;21.82;29.73;97329.41;4806053;29;1080;-77
2022/08/16 06:53:07;;;;;;;;;;;;;;;21.83;29.74;97319.66;4806176;29;1247;-77
2022/08/16 06:55:34;;;;;;;;;;;;;;;21.84;29.50;97324.06;4789747;29;1417;-77
2022/08/16 06:58:04;;;;;;;;;;;;;;;22.06;29.43;97314.72;4804726;29;1257;-78
2022/08/16 07:00:29;;;;;;;;;;;;;;;22.07;29.40;97321.97;4806027;29;1907;-77
2022/08/16 07:03:05;;;;;;;;;;;;;;;21.67;29.96;97319.88;4825560;29;1290;-78
2022/08/16 07:05:31;;;;;;;;;;;;;;;21.71;29.79;97317.69;4843088;29;1068;-77
2022/08/16 07:08:11;;;;;;;;;;;;;;;22.01;29.42;97321.00;4845830;29;1221;-78
2022/08/16 07:10:38;;;;;;;;;;;;;;;21.72;29.96;97324.16;4845590;29;1888;-77
2022/08/16 07:13:04;;;;;;;;;;;;;;;21.95;29.74;97325.69;4846110;29;1120;-77
2022/08/16 07:15:31;;;;;;;;;;;;;;;21.68;29.86;97318.63;4845592;29;1282;-77
2022/08/16 07:17:58;;;;;;;;;;;;;;;21.86;29.73;97317.91;4846059;29;1110;-77
2022/08/16 07:20:24;;;;;;;;;;;;;;;21.94;29.79;97321.28;4864203;29;2002;-78
2022/08/16 07:22:51;;;;;;;;;;;;;;;21.61;30.46;97318.88;4867430;29;1528;-77
2022/08/16 07:25:21;;;;;;;;;;;;;;;22.06;29.81;97323.22;4864637;29;1155;-77
2022/08/16 07:27:46;;;;;;;;;;;;;;;21.89;30.13;97321.88;4827443;29;989;-77
2022/08/16 07:30:15;;;;;;;;;;;;;;;21.85;30.14;97322.78;4818660;29;1322;-77
2022/08/16 07:32:40;;;;;;;;;;;;;;;22.00;29.87;97316.59;4809263;29;1209;-77
2022/08/16 07:35:06;;;;;;;;;;;;;;;22.00;29.93;97310.94;4737476;30;1295;-78
2022/08/16 07:37:33;;;;;;;;;;;;;;;21.95;30.12;97314.34;4723126;30;1315;-77
2022/08/16 07:40:21;;;;;;;;;;;;;;;21.89;30.09;97310.56;4702377;30;1916;-77
2022/08/16 07:42:47;;;;;;;;;;;;;;;21.80;30.19;97319.78;4702913;30;1339;-78
2022/08/16 07:45:13;;;;;;;;;;;;;;;22.07;29.76;97317.13;4695404;30;1651;-78
2022/08/16 07:47:44;;;;;;;;;;;;;;;21.95;30.07;97314.34;4734528;30;1290;-77
2022/08/16 07:50:12;;;;;;;;;;;;;;;21.91;30.15;97313.69;4734785;30;1424;-77
2022/08/16 07:52:38;;;;;;;;;;;;;;;22.05;29.91;97318.81;4720085;30;1154;-77
2022/08/16 07:55:04;;;;;;;;;;;;;;;22.19;29.74;97312.63;4719788;30;1218;-76
2022/08/16 07:57:29;;;;;;;;;;;;;;;21.95;29.87;97308.69;4737138;30;1263;-76
2022/08/16 07:59:55;;;;;;;;;;;;;;;22.15;29.62;97311.19;4771945;30;1967;-77
2022/08/16 08:02:20;;;;;;;;;;;;;;;21.84;30.08;97309.91;4772676;30;1287;-77
2022/08/16 08:04:50;;;;;;;;;;;;;;;21.63;30.54;97310.72;4772977;30;1540;-76
2022/08/16 08:07:15;;;;;;;;;;;;;;;21.94;30.21;97318.44;4808174;29;1318;-76
2022/08/16 08:09:41;;;;;;;;;;;;;;;21.91;29.95;97313.69;4808473;29;1238;-77
2022/08/16 08:12:08;;;;;;;;;;;;;;;21.89;29.85;97319.84;4849939;29;1253;-76
2022/08/16 08:14:38;;;;;;;;;;;;;;;22.04;29.99;97315.19;4862165;29;1278;-77
2022/08/16 08:17:06;;;;;;;;;;;;;;;21.99;29.78;97320.69;4863246;29;1208;-77
2022/08/16 08:19:32;;;;;;;;;;;;;;;21.89;30.01;97317.00;4811144;29;1196;-76
2022/08/16 08:21:58;;;;;;;;;;;;;;;21.89;30.18;97321.88;4811329;29;1912;-76
2022/08/16 08:24:33;;;;;;;;;;;;;;;21.92;30.28;97315.31;4743591;30;1413;-77
2022/08/16 08:27:00;;;;;;;;;;;;;;;22.22;29.65;97317.34;4739018;30;1140;-76
2022/08/16 08:29:26;;;;;;;;;;;;;;;22.14;29.65;97318.13;4752401;30;1234;-77
2022/08/16 08:31:52;;;;;;;;;;;;;;;22.06;29.85;97323.22;4788068;30;1122;-76
2022/08/16 08:34:19;;;;;;;;;;;;;;;22.04;29.82;97322.91;4789844;30;952;-76
2022/08/16 08:36:47;;;;;;;;;;;;;;;21.87;29.90;97318.75;4790219;30;1290;-76
2022/08/16 08:39:29;;;;;;;;;;;;;;;21.77;30.30;97310.19;4751911;30;1152;-76
2022/08/16 08:41:54;;;;;;;;;;;;;;;21.69;30.65;97311.69;4789900;30;1915;-76
2022/08/16 08:44:21;;;;;;;;;;;;;;;21.84;30.38;97315.56;4789899;29;1399;-77
2022/08/16 08:46:47;;;;;;;;;;;;;;;22.01;30.18;97315.31;4772215;30;1180;-77
2022/08/16 08:49:12;;;;;;;;;;;;;;;21.97;30.13;97311.88;4754215;30;1161;-77
2022/08/16 08:51:40;;;;;;;;;;;;;;;22.15;29.85;97322.53;4789360;30;1237;-76
2022/08/16 08:54:09;;;;;;;;;;;;;;;22.06;30.24;97315.50;4763092;29;1435;-76
2022/08/16 08:56:36;;;;;;;;;;;;;;;22.28;29.62;97315.50;4804040;29;1268;-77
2022/08/16 08:59:08;;;;;;;;;;;;;;;22.17;30.11;97315.13;4821441;29;1148;-76
2022/08/16 09:01:37;;;;;;;;;;;;;;;21.99;30.06;97303.69;4837959;29;1923;-77
2022/08/16 09:04:04;;;;;;;;;;;;;;;22.10;29.96;97315.38;4826106;29;1215;-76
2022/08/16 09:06:31;;;;;;;;;;;;;;;22.06;30.04;97306.22;4862429;29;1261;-77
2022/08/16 09:08:58;;;;;;;;;;;;;;;22.09;29.84;97313.81;4825555;29;1466;-77
2022/08/16 09:11:24;;;;;;;;;;;;;;;22.18;30.07;97316.72;4806969;29;1280;-76
2022/08/16 09:13:50;;;;;;;;;;;;;;;22.11;29.84;97305.66;4792641;29;1362;-76
2022/08/16 09:16:17;;;;;;;;;;;;;;;21.95;30.46;97300.19;4771218;30;1387;-76
2022/08/16 09:18:43;;;;;;;;;;;;;;;22.05;29.84;97304.66;4785881;30;1148;-76
2022/08/16 09:21:09;;;;;;;;;;;;;;;21.89;30.58;97299.22;4786287;30;1966;-77
2022/08/16 09:23:34;;;;;;;;;;;;;;;21.92;30.25;97298.31;4771000;30;1193;-76
2022/08/16 09:26:02;;;;;;;;;;;;;;;21.93;30.46;97297.84;4786299;29;1335;-76
2022/08/16 09:28:27;;;;;;;;;;;;;;;22.00;30.10;97305.25;4786225;29;1393;-76
2022/08/16 09:31:02;;;;;;;;;;;;;;;21.99;30.33;97298.03;4786287;30;1311;-76
2022/08/16 09:33:28;;;;;;;;;;;;;;;22.05;30.18;97290.50;4771061;30;976;-76
2022/08/16 09:35:54;;;;;;;;;;;;;;;21.95;30.28;97300.19;4786202;30;955;-77
2022/08/16 09:38:19;;;;;;;;;;;;;;;21.88;30.26;97292.00;4803981;29;1098;-77
2022/08/16 09:40:45;;;;;;;;;;;;;;;22.05;30.05;97296.94;4803569;29;1986;-77
2022/08/16 09:43:12;;;;;;;;;;;;;;;22.22;29.72;97293.88;4825124;29;1262;-76
2022/08/16 09:45:40;;;;;;;;;;;;;;;22.03;30.02;97293.78;4828283;29;1006;-76
2022/08/16 09:48:06;;;;;;;;;;;;;;;22.08;30.32;97289.56;4874464;29;1037;-77
2022/08/16 09:50:33;;;;;;;;;;;;;;;22.05;30.04;97291.28;4895746;29;1437;-78
2022/08/16 09:52:58;;;;;;;;;;;;;;;21.96;30.64;97293.28;4899085;29;979;-77
2022/08/16 09:55:24;;;;;;;;;;;;;;;22.16;30.17;97285.22;4898748;29;994;-77
2022/08/16 09:57:49;;;;;;;;;;;;;;;22.31;30.05;97296.75;4898995;29;1041;-76
2022/08/16 10:00:15;;;;;;;;;;;;;;;22.04;30.33;97286.09;4898932;29;1907;-76
2022/08/16 10:02:41;;;;;;;;;;;;;;;22.03;30.39;97282.47;4898931;29;1007;-77
2022/08/16 10:05:07;;;;;;;;;;;;;;;22.14;30.43;97287.72;4898949;29;1363;-77
2022/08/16 10:07:32;;;;;;;;;;;;;;;22.18;30.17;97287.59;4898681;29;978;-77
2022/08/16 10:09:58;;;;;;;;;;;;;;;22.04;30.63;97288.91;4928515;29;1094;-77
2022/08/16 10:15:08;;;;;;;;;;;;;;;22.01;31.00;97284.97;4984215;28;2033;-76
2022/08/16 10:17:34;;;;;;;;;;;;;;;22.12;30.93;97304.38;4996557;28;978;-77
2022/08/16 10:19:59;;;;;;;;;;;;;;;21.97;30.88;97294.88;4996690;28;1962;-76
2022/08/16 10:22:25;;;;;;;;;;;;;;;22.12;30.83;97295.88;4974777;28;1057;-76
2022/08/16 10:24:51;;;;;;;;;;;;;;;22.10;30.55;97287.06;4975286;28;1014;-76
2022/08/16 10:27:16;;;;;;;;;;;;;;;21.98;30.74;97296.44;4975347;28;1023;-77
2022/08/16 10:29:42;;;;;;;;;;;;;;;22.23;30.68;97301.94;4975221;28;976;-76
2022/08/16 10:32:08;;;;;;;;;;;;;;;22.09;30.67;97291.13;4975217;28;973;-76
2022/08/16 10:34:33;;;;;;;;;;;;;;;22.20;30.66;97296.41;4942898;28;906;-76
2022/08/16 10:36:59;;;;;;;;;;;;;;;22.38;30.34;97307.00;4936837;29;1046;-76
2022/08/16 10:39:24;;;;;;;;;;;;;;;22.32;30.41;97310.47;4940464;29;1036;-76
2022/08/16 10:41:50;;;;;;;;;;;;;;;22.31;30.33;97308.88;4924105;29;1902;-77
2022/08/16 10:44:15;;;;;;;;;;;;;;;22.23;30.49;97299.13;4939982;29;1072;-76
2022/08/16 10:46:41;;;;;;;;;;;;;;;22.19;30.86;97320.34;4940296;29;971;-76
2022/08/16 10:49:07;;;;;;;;;;;;;;;22.18;30.65;97305.38;4940254;29;1012;-76
2022/08/16 10:51:33;;;;;;;;;;;;;;;22.21;30.77;97315.78;4920850;29;952;-76
2022/08/16 10:53:58;;;;;;;;;;;;;;;22.11;30.80;97316.97;4935033;29;969;-76
2022/08/16 10:56:24;;;;;;;;;;;;;;;22.10;31.05;97309.72;4940270;29;954;-76
2022/08/16 10:58:50;;;;;;;;;;;;;;;22.04;30.72;97308.75;4939932;29;1023;-77
2022/08/16 11:01:15;;;;;;;;;;;;;;;22.30;30.60;97307.31;4939785;29;1985;-76
2022/08/16 11:03:41;;;;;;;;;;;;;;;22.39;30.42;97308.63;4939972;29;965;-77
2022/08/16 11:06:07;;;;;;;;;;;;;;;22.14;30.54;97301.91;4939686;29;1041;-76
2022/08/16 11:08:33;;;;;;;;;;;;;;;22.12;30.99;97301.56;4954018;29;1495;-76
2022/08/16 11:10:58;;;;;;;;;;;;;;;21.89;31.06;97304.88;4958988;29;931;-77
2022/08/16 11:13:24;;;;;;;;;;;;;;;22.35;30.37;97306.69;4958807;29;931;-76
2022/08/16 11:15:50;;;;;;;;;;;;;;;22.14;30.32;97306.78;4959095;29;958;-76
2022/08/16 11:18:16;;;;;;;;;;;;;;;22.14;30.80;97310.41;4943113;29;914;-76
2022/08/16 11:20:42;;;;;;;;;;;;;;;22.05;30.57;97301.81;4958902;29;1906;-76
2022/08/16 11:23:08;;;;;;;;;;;;;;;22.20;30.30;97308.53;4989194;28;1046;-76
2022/08/16 11:25:34;;;;;;;;;;;;;;;21.98;30.96;97302.13;4999776;28;852;-77
2022/08/16 11:27:59;;;;;;;;;;;;;;;22.22;30.36;97300.34;4999652;28;880;-77
2022/08/16 11:30:26;;;;;;;;;;;;;;;21.92;30.88;97276.44;4999365;28;1003;-77
2022/08/16 11:32:52;;;;;;;;;;;;;;;22.29;30.21;97293.63;4999170;28;943;-76
2022/08/16 11:35:21;;;;;;;;;;;;;;;22.11;30.50;97294.31;4977645;28;948;-76
2022/08/16 11:38:06;;;;;;;;;;;;;;;22.17;30.46;97295.28;4958388;29;1034;-76
2022/08/16 11:40:33;;;;;;;;;;;;;;;22.07;30.70;97288.78;4958488;29;1902;-77
2022/08/16 11:43:00;;;;;;;;;;;;;;;22.18;30.48;97288.38;4958205;29;908;-77
2022/08/16 11:45:25;;;;;;;;;;;;;;;22.36;30.38;97291.28;4958376;29;976;-76
2022/08/16 11:47:51;;;;;;;;;;;;;;;22.06;30.76;97294.91;4957890;28;936;-77
2022/08/16 11:50:17;;;;;;;;;;;;;;;22.00;30.95;97296.75;4957604;29;897;-77
2022/08/16 11:52:42;;;;;;;;;;;;;;;22.03;31.10;97293.00;4958132;29;942;-77
2022/08/16 11:55:08;;;;;;;;;;;;;;;22.26;30.58;97286.03;4958025;29;927;-78
2022/08/16 11:57:34;;;;;;;;;;;;;;;22.12;30.84;97284.56;4958027;29;909;-76
2022/08/16 11:59:59;;;;;;;;;;;;;;;22.27;30.76;97281.94;4974027;28;1974;-77
2022/08/16 12:02:25;;;;;;;;;;;;;;;22.00;31.52;97285.44;4926028;29;963;-77
2022/08/16 12:04:50;;;;;;;;;;;;;;;22.43;30.78;97276.00;4957679;29;943;-77
2022/08/16 12:07:16;;;;;;;;;;;;;;;22.43;30.71;97278.84;4957878;29;983;-77
2022/08/16 12:09:41;;;;;;;;;;;;;;;22.08;31.30;97278.25;4958005;29;1006;-77
2022/08/16 12:12:07;;;;;;;;;;;;;;;22.19;31.34;97284.28;4958105;29;1006;-76
2022/08/16 12:14:33;;;;;;;;;;;;;;;22.33;31.13;97278.06;4957806;29;1094;-77
2022/08/16 12:17:00;;;;;;;;;;;;;;;22.36;30.63;97271.44;4957947;29;918;-76
2022/08/16 12:19:26;;;;;;;;;;;;;;;22.27;31.25;97279.09;4942300;29;986;-77
2022/08/16 12:21:51;;;;;;;;;;;;;;;22.14;31.01;97276.41;4957623;29;1993;-76
2022/08/16 12:24:17;;;;;;;;;;;;;;;22.39;30.99;97274.59;4957400;29;1490;-76
2022/08/16 12:26:42;;;;;;;;;;;;;;;22.34;30.68;97273.94;4957441;29;913;-77
2022/08/16 12:29:08;;;;;;;;;;;;;;;22.24;30.86;97280.84;4957788;29;977;-77
2022/08/16 12:31:34;;;;;;;;;;;;;;;22.24;31.04;97280.84;4984403;28;1298;-77
2022/08/16 12:34:00;;;;;;;;;;;;;;;22.14;31.22;97286.94;4998512;28;1389;-76
2022/08/16 12:36:26;;;;;;;;;;;;;;;22.31;30.58;97286.22;4998656;28;934;-77
2022/08/16 12:38:53;;;;;;;;;;;;;;;22.12;31.16;97283.78;4998501;28;928;-77
2022/08/16 12:41:19;;;;;;;;;;;;;;;22.09;31.05;97279.81;4998633;28;1982;-77
2022/08/16 12:43:45;;;;;;;;;;;;;;;22.21;30.78;97281.78;4998227;28;1112;-77
2022/08/16 12:46:11;;;;;;;;;;;;;;;22.36;30.47;97277.09;4998504;28;1137;-76
2022/08/16 12:51:21;;;;;;;;;;;;;;;22.36;30.47;97274.25;4997998;28;989;-77
2022/08/16 12:53:52;;;;;;;;;;;;;;;22.22;30.70;97280.50;4997979;28;961;-77
2022/08/16 12:56:19;;;;;;;;;;;;;;;22.24;30.90;97283.69;4998091;28;963;-76
2022/08/16 12:58:46;;;;;;;;;;;;;;;22.26;30.95;97284.00;4997909;28;1009;-77
2022/08/16 13:01:11;;;;;;;;;;;;;;;22.25;30.70;97290.91;4997728;28;1899;-77
2022/08/16 13:03:38;;;;;;;;;;;;;;;22.39;30.54;97286.72;4997682;28;918;-76